createdAt,value
2018-03-14T00:01:41.820Z,100536.34
2018-03-14T00:06:43.190Z,100540.08
2018-03-14T00:11:44.553Z,100542.13
2018-03-14T00:16:45.964Z,100544.51
2018-03-14T00:21:47.336Z,100540.73
2018-03-14T00:26:48.720Z,100545.77
2018-03-14T00:31:50.115Z,100557.08
2018-03-14T00:36:52.245Z,100557.60
2018-03-14T00:41:53.612Z,100563.78
2018-03-14T00:46:55.745Z,100558.80
2018-03-14T00:51:57.135Z,100568.65
2018-03-14T00:56:58.555Z,100568.66
2018-03-14T01:01:59.979Z,100563.00
2018-03-14T01:07:01.368Z,100566.94
2018-03-14T01:12:02.747Z,100569.21
2018-03-14T01:17:04.163Z,100564.36
2018-03-14T01:22:06.268Z,100568.50
2018-03-14T01:27:07.665Z,100567.09
2018-03-14T01:32:09.776Z,100576.47
2018-03-14T01:37:11.903Z,100579.20
2018-03-14T01:42:13.331Z,100586.10
2018-03-14T01:47:14.692Z,100584.36
2018-03-14T01:52:16.073Z,100586.22
2018-03-14T01:57:17.439Z,100594.91
2018-03-14T02:02:18.836Z,100591.39
2018-03-14T02:07:20.242Z,100596.87
2018-03-14T02:12:21.644Z,100599.86
2018-03-14T02:17:23.023Z,100608.47
2018-03-14T02:22:24.459Z,100609.41
2018-03-14T02:27:25.812Z,100612.02
2018-03-14T02:32:27.159Z,100621.45
2018-03-14T02:37:28.544Z,100627.67
2018-03-14T02:42:30.035Z,100623.37
2018-03-14T02:47:31.387Z,100629.02
2018-03-14T02:52:33.528Z,100615.88
2018-03-14T02:57:34.897Z,100640.94
2018-03-14T03:02:36.231Z,100640.90
2018-03-14T03:07:37.603Z,100643.19
2018-03-14T03:12:38.960Z,100646.02
2018-03-14T03:17:40.307Z,100651.66
2018-03-14T03:22:41.679Z,100649.61
2018-03-14T03:27:43.059Z,100659.08
2018-03-14T03:32:44.402Z,100663.89
2018-03-14T03:37:46.479Z,100670.95
2018-03-14T03:42:47.819Z,100665.92
2018-03-14T03:47:49.220Z,100670.58
2018-03-14T03:52:50.618Z,100674.56
2018-03-14T03:57:51.980Z,100678.06
2018-03-14T04:02:54.094Z,100681.53
2018-03-14T04:07:55.471Z,100674.27
2018-03-14T04:12:57.602Z,100671.13
2018-03-14T04:17:59.008Z,100676.36
2018-03-14T04:23:00.411Z,100677.30
2018-03-14T04:28:01.763Z,100679.30
2018-03-14T04:33:03.110Z,100684.90
2018-03-14T04:38:04.492Z,100684.21
2018-03-14T04:43:05.855Z,100689.78
2018-03-14T04:48:07.315Z,100700.23
2018-03-14T04:53:08.691Z,100702.56
2018-03-14T04:58:10.039Z,100707.34
2018-03-14T05:03:11.391Z,100706.67
2018-03-14T05:08:13.503Z,100703.84
2018-03-14T05:13:15.582Z,100712.78
2018-03-14T05:18:17.052Z,100706.07
2018-03-14T05:23:19.149Z,100711.23
2018-03-14T05:28:20.503Z,100716.45
2018-03-14T05:33:21.976Z,100712.11
2018-03-14T05:38:24.097Z,100717.34
2018-03-14T05:43:26.235Z,100719.09
2018-03-14T05:48:27.593Z,100731.06
2018-03-14T05:53:28.958Z,100729.29
2018-03-14T05:58:31.417Z,100736.89
2018-03-14T06:03:33.434Z,100736.49
2018-03-14T06:08:35.880Z,100748.97
2018-03-14T06:13:38.210Z,100755.45
2018-03-14T06:18:40.400Z,100762.68
2018-03-14T06:23:42.694Z,100762.83
2018-03-14T06:28:45.011Z,100766.20
2018-03-14T06:33:48.000Z,100771.02
2018-03-14T06:38:50.394Z,100777.05
2018-03-14T06:43:52.276Z,100774.01
2018-03-14T06:48:54.501Z,100778.75
2018-03-14T06:53:56.611Z,100781.86
2018-03-14T06:59:16.884Z,100784.03
2018-03-14T07:04:37.127Z,100788.59
2018-03-14T07:09:38.662Z,100790.77
2018-03-14T07:14:41.026Z,100804.37
2018-03-14T07:19:43.255Z,100799.95
2018-03-14T07:24:46.957Z,100810.16
2018-03-14T07:29:49.636Z,100809.07
2018-03-14T07:34:51.916Z,100817.50
2018-03-14T07:39:53.742Z,100823.08
2018-03-14T07:44:55.554Z,100825.46
2018-03-14T07:49:57.516Z,100837.05
2018-03-14T07:54:59.465Z,100830.35
2018-03-14T08:00:02.477Z,100836.72
2018-03-14T08:05:04.717Z,100843.92
2018-03-14T08:10:07.071Z,100849.14
2018-03-14T08:15:09.088Z,100846.23
2018-03-14T08:20:11.217Z,100850.18
2018-03-14T08:25:14.259Z,100841.73
2018-03-14T08:30:16.267Z,100846.56
2018-03-14T08:40:20.510Z,100852.29
2018-03-14T08:45:23.046Z,100852.89
2018-03-14T08:50:26.268Z,100847.06
2018-03-14T08:55:28.586Z,100864.69
2018-03-14T09:00:30.852Z,100868.91
2018-03-14T09:05:32.925Z,100856.00
2018-03-14T09:10:35.166Z,100861.34
2018-03-14T09:15:37.258Z,100867.87
2018-03-14T09:20:38.678Z,100866.12
2018-03-14T09:25:40.620Z,100875.53
2018-03-14T09:30:43.115Z,100872.38
2018-03-14T09:35:46.539Z,100877.47
2018-03-14T09:40:48.508Z,100878.56
2018-03-14T09:46:05.133Z,100891.23
2018-03-14T09:51:08.561Z,100888.31
2018-03-14T09:56:10.662Z,100878.97
2018-03-14T10:01:12.564Z,100873.70
2018-03-14T10:06:13.926Z,100867.10
2018-03-14T10:11:15.267Z,100868.23
2018-03-14T10:16:17.392Z,100869.31
2018-03-14T10:21:18.832Z,100867.78
2018-03-14T10:26:20.212Z,100863.39
2018-03-14T10:31:21.573Z,100859.20
2018-03-14T10:36:22.940Z,100867.77
2018-03-14T10:41:25.084Z,100869.61
2018-03-14T10:46:26.460Z,100875.61
2018-03-14T10:51:27.809Z,100886.11
2018-03-14T10:56:29.601Z,100886.47
2018-03-14T11:01:37.201Z,100885.13
2018-03-14T11:06:39.015Z,100879.48
2018-03-14T11:11:40.441Z,100885.39
2018-03-14T11:16:41.815Z,100881.59
2018-03-14T11:21:43.213Z,100879.61
2018-03-14T11:26:44.979Z,100818.75
2018-03-14T11:31:48.437Z,100885.82
2018-03-14T11:36:50.039Z,100893.72
2018-03-14T11:41:51.440Z,100878.50
2018-03-14T11:46:52.872Z,100885.45
2018-03-14T11:51:54.648Z,100887.02
2018-03-14T11:56:56.027Z,100885.44
2018-03-14T12:01:57.366Z,100881.48
2018-03-14T12:06:58.790Z,100881.93
2018-03-14T12:12:00.317Z,100873.89
2018-03-14T12:17:02.414Z,100871.45
2018-03-14T12:22:03.807Z,100869.53
2018-03-14T12:27:05.253Z,100864.05
2018-03-14T12:32:06.798Z,100867.14
2018-03-14T12:37:08.903Z,100856.61
2018-03-14T12:42:10.339Z,100855.67
2018-03-14T12:47:11.785Z,100847.51
2018-03-14T12:52:13.430Z,100838.31
2018-03-14T12:57:15.660Z,100836.05
2018-03-14T13:02:17.048Z,100836.50
2018-03-14T13:07:18.447Z,100830.58
2018-03-14T13:12:20.668Z,100821.97
2018-03-14T13:17:22.052Z,100817.36
2018-03-14T13:22:23.422Z,100823.41
2018-03-14T13:27:24.816Z,100812.86
2018-03-14T13:32:26.339Z,100796.97
2018-03-14T13:37:27.821Z,100810.69
2018-03-14T13:42:29.362Z,100805.34
2018-03-14T13:47:31.521Z,100799.07
2018-03-14T13:52:32.859Z,100788.59
2018-03-14T13:57:35.102Z,100775.94
2018-03-14T14:02:36.508Z,100764.48
2018-03-14T14:07:37.872Z,100762.63
2018-03-14T14:12:39.244Z,100763.64
2018-03-14T14:17:40.609Z,100760.33
2018-03-14T14:22:42.012Z,100755.24
2018-03-14T14:27:44.851Z,100742.54
2018-03-14T14:32:46.258Z,100740.80
2018-03-14T14:37:47.633Z,100737.64
2018-03-14T14:42:50.578Z,100737.27
2018-03-14T14:47:51.979Z,100734.38
2018-03-14T14:52:53.324Z,100728.45
2018-03-14T14:57:54.808Z,100723.03
2018-03-14T15:02:56.232Z,100710.91
2018-03-14T15:07:58.447Z,100693.69
2018-03-14T15:13:00.068Z,100689.83
2018-03-14T15:18:01.414Z,100678.59
2018-03-14T15:23:03.516Z,100683.14
2018-03-14T15:28:04.850Z,100671.06
2018-03-14T15:33:06.195Z,100679.27
2018-03-14T15:38:08.329Z,100674.33
2018-03-14T15:43:09.685Z,100649.00
2018-03-14T15:48:11.059Z,100667.72
2018-03-14T15:53:12.403Z,100666.12
2018-03-14T15:58:13.759Z,100661.98
2018-03-14T16:03:15.148Z,100649.75
2018-03-14T16:08:16.553Z,100655.84
2018-03-14T16:13:19.283Z,100642.81
2018-03-14T16:18:21.573Z,100648.66
2018-03-14T16:23:24.007Z,100651.73
2018-03-14T16:28:26.484Z,100653.22
2018-03-14T16:33:28.249Z,100652.67
2018-03-14T16:38:30.194Z,100651.17
2018-03-14T16:43:33.627Z,100642.61
2018-03-14T16:48:37.030Z,100650.53
2018-03-14T16:53:38.797Z,100646.52
2018-03-14T16:58:40.476Z,100652.13
2018-03-14T17:03:42.972Z,100649.51
2018-03-14T17:08:44.524Z,100639.56
2018-03-14T17:13:45.964Z,100649.06
2018-03-14T17:18:47.446Z,100652.05
2018-03-14T17:23:49.298Z,100640.37
2018-03-14T17:28:51.787Z,100660.83
2018-03-14T17:33:54.146Z,100659.91
2018-03-14T17:38:55.945Z,100667.16
2018-03-14T17:43:57.900Z,100664.10
2018-03-14T17:48:59.352Z,100672.98
2018-03-14T17:54:00.944Z,100671.77
2018-03-14T17:59:02.613Z,100672.95
2018-03-14T18:04:05.152Z,100676.53
2018-03-14T18:14:40.883Z,100684.81
2018-03-14T18:19:43.417Z,100689.19
2018-03-14T18:24:44.898Z,100693.97
2018-03-14T18:29:46.475Z,100696.21
2018-03-14T18:34:48.226Z,100696.69
2018-03-14T18:39:49.745Z,100700.44
2018-03-14T18:44:54.433Z,100700.92
2018-03-14T18:49:56.695Z,100699.57
2018-03-14T18:54:58.785Z,100707.50
2018-03-14T19:00:00.141Z,100700.91
2018-03-14T19:05:02.504Z,100701.00
2018-03-14T19:10:03.876Z,100690.40
2018-03-14T19:15:05.370Z,100688.50
2018-03-14T19:20:07.559Z,100687.23
2018-03-14T19:25:09.776Z,100684.63
2018-03-14T19:30:11.970Z,100673.70
2018-03-14T19:35:14.630Z,100657.36
2018-03-14T19:40:15.991Z,100645.52
2018-03-14T19:45:18.076Z,100649.34
2018-03-14T19:50:19.690Z,100645.23
2018-03-14T19:55:21.800Z,100640.00
2018-03-14T20:00:23.877Z,100622.39
2018-03-14T20:05:25.343Z,100621.80
2018-03-14T20:10:26.713Z,100616.48
2018-03-14T20:15:28.056Z,100608.55
2018-03-14T20:20:29.479Z,100594.29
2018-03-14T20:25:32.441Z,100588.66
2018-03-14T20:30:33.821Z,100578.05
2018-03-14T20:35:35.251Z,100578.19
2018-03-14T20:40:36.649Z,100567.48
2018-03-14T20:45:38.062Z,100553.26
2018-03-14T20:50:39.431Z,100552.55
2018-03-14T20:55:40.897Z,100547.50
2018-03-14T21:00:42.290Z,100536.55
2018-03-14T21:05:43.734Z,100538.50
2018-03-14T21:10:45.853Z,100523.82
2018-03-14T21:15:47.254Z,100533.98
2018-03-14T21:20:48.592Z,100517.69
2018-03-14T21:25:50.026Z,100516.06
2018-03-14T21:30:51.372Z,100502.36
2018-03-14T21:35:52.731Z,100498.60
2018-03-14T21:40:54.089Z,100494.66
2018-03-14T21:45:55.443Z,100480.31
2018-03-14T21:50:56.829Z,100480.72
2018-03-14T21:55:58.145Z,100474.23
2018-03-14T22:01:00.328Z,100458.80
2018-03-14T22:06:01.739Z,100456.67
2018-03-14T22:11:03.156Z,100449.69
2018-03-14T22:16:04.769Z,100443.33
2018-03-14T22:21:06.229Z,100446.70
2018-03-14T22:26:07.720Z,100443.75
2018-03-14T22:31:09.849Z,100435.76
2018-03-14T22:36:11.256Z,100432.56
2018-03-14T22:41:12.667Z,100426.52
2018-03-14T22:46:14.042Z,100424.52
2018-03-14T22:51:15.429Z,100431.08
2018-03-14T22:56:16.830Z,100425.11
2018-03-14T23:01:18.204Z,100428.05
2018-03-14T23:06:19.687Z,100418.30
2018-03-14T23:11:21.045Z,100421.67
2018-03-14T23:16:22.504Z,100406.69
2018-03-14T23:21:23.909Z,100401.62
2018-03-14T23:26:25.333Z,100395.28
2018-03-14T23:31:26.709Z,100394.83
2018-03-14T23:36:28.102Z,100393.60
2018-03-14T23:41:29.482Z,100390.73
2018-03-14T23:46:30.812Z,100378.84
2018-03-14T23:51:32.175Z,100374.78
2018-03-14T23:56:33.568Z,100376.58
